Time;durP1;ratioP1;P1;durP2;ratioP2;P2;SDS_P1;SDS_P2;PMS_P1;PMS_P2;Temp;Humidity;BMP_temperature;BMP_pressure;BME280_temperature;BME280_humidity;BME280_pressure;Samples;Min_cycle;Max_cycle;Signal;HPM_P1;HPM_P2
2023/08/23 00:01:32;;;;;;;;;;;;;;;24.94;57.75;94907.19;4180444;28;19982;-77
2023/08/23 00:03:34;;;;;;;;;;;;;;;24.83;57.76;94910.75;4188287;28;19924;-76
2023/08/23 00:05:36;;;;;;;;;;;;;;;24.76;58.14;94911.97;4174729;28;19964;-76
2023/08/23 00:07:37;;;;;;;;;;;;;;;24.76;58.38;94907.44;4145685;28;20056;-77
2023/08/23 00:09:39;;;;;;;;;;;;;;;24.78;57.79;94896.47;4174450;28;19935;-80
2023/08/23 00:11:40;;;;;;;;;;;;;;;24.72;58.11;94912.47;4170403;28;20054;-78
2023/08/23 00:13:46;;;;;;;;;;;;;;;24.68;58.78;94907.84;4169687;28;19925;-78
2023/08/23 00:15:48;;;;;;;;;;;;;;;24.62;58.33;94906.13;4174195;28;20039;-78
2023/08/23 00:17:49;;;;;;;;;;;;;;;24.52;57.91;94904.91;4179475;28;20026;-77
2023/08/23 00:19:51;;;;;;;;;;;;;;;24.48;58.04;94909.09;4178814;28;19935;-81
2023/08/23 00:21:53;;;;;;;;;;;;;;;24.50;58.41;94911.53;4178553;28;19926;-77
2023/08/23 00:23:54;;;;;;;;;;;;;;;24.49;58.44;94902.69;4178391;28;20024;-78
2023/08/23 00:25:56;;;;;;;;;;;;;;;24.49;58.71;94908.03;4177486;28;20367;-78
2023/08/23 00:27:58;;;;;;;;;;;;;;;24.49;58.73;94904.56;4178429;28;19972;-79
2023/08/23 00:30:15;;;;;;;;;;;;;;;24.47;57.73;94907.44;4163805;28;19925;-76
2023/08/23 00:32:17;;;;;;;;;;;;;;;24.52;57.88;94896.84;4161051;28;20008;-79
2023/08/23 00:34:18;;;;;;;;;;;;;;;24.50;57.75;94904.31;4171933;28;19925;-80
2023/08/23 00:36:20;;;;;;;;;;;;;;;24.52;57.63;94898.69;4171582;28;19928;-78
2023/08/23 00:38:22;;;;;;;;;;;;;;;24.53;58.04;94901.16;4177797;28;21050;-80
2023/08/23 00:40:24;;;;;;;;;;;;;;;24.55;57.57;94900.09;4174389;28;19924;-79
2023/08/23 00:42:25;;;;;;;;;;;;;;;24.56;57.37;94893.69;4173086;28;19961;-78
2023/08/23 00:44:27;;;;;;;;;;;;;;;24.59;57.03;94893.22;4180001;28;19928;-76
2023/08/23 00:46:28;;;;;;;;;;;;;;;24.58;56.66;94899.63;4177138;28;19991;-78
2023/08/23 00:48:31;;;;;;;;;;;;;;;24.56;56.89;94899.84;4178201;28;20824;-78
2023/08/23 00:50:33;;;;;;;;;;;;;;;24.54;57.33;94904.63;4178456;28;19921;-77
2023/08/23 00:52:36;;;;;;;;;;;;;;;24.49;57.49;94896.53;4169694;28;19933;-77
2023/08/23 00:54:53;;;;;;;;;;;;;;;24.47;57.31;94891.38;4151476;28;19935;-76
2023/08/23 00:56:55;;;;;;;;;;;;;;;24.46;58.17;94895.13;4180856;28;19960;-80
2023/08/23 00:58:58;;;;;;;;;;;;;;;24.45;57.32;94896.16;4155748;28;19928;-78
2023/08/23 01:01:00;;;;;;;;;;;;;;;24.42;57.29;94893.97;4166590;28;19948;-80
2023/08/23 01:03:02;;;;;;;;;;;;;;;24.41;57.85;94902.22;4179708;28;19920;-79
2023/08/23 01:05:04;;;;;;;;;;;;;;;24.40;58.00;94898.75;4180051;28;20019;-79
2023/08/23 01:07:05;;;;;;;;;;;;;;;24.41;57.83;94892.31;4179172;28;20058;-79
2023/08/23 01:09:09;;;;;;;;;;;;;;;24.40;57.23;94904.09;4159742;28;20024;-78
2023/08/23 01:11:24;;;;;;;;;;;;;;;24.36;57.39;94900.28;4166317;28;19929;-78
2023/08/23 01:13:40;;;;;;;;;;;;;;;24.37;57.69;94901.91;4144804;28;20242;-79
2023/08/23 01:15:42;;;;;;;;;;;;;;;24.37;57.48;94901.91;4144510;28;20374;-79
2023/08/23 01:17:44;;;;;;;;;;;;;;;24.40;57.24;94904.09;4168075;28;20268;-79
2023/08/23 01:19:47;;;;;;;;;;;;;;;24.45;57.03;94911.41;4177809;28;19921;-80
2023/08/23 01:21:48;;;;;;;;;;;;;;;24.48;57.19;94905.59;4178401;28;19995;-76
2023/08/23 01:23:50;;;;;;;;;;;;;;;24.49;57.20;94905.34;4139859;28;20357;-79
2023/08/23 01:25:52;;;;;;;;;;;;;;;24.50;57.14;94909.69;4161596;28;19929;-79
2023/08/23 01:27:54;;;;;;;;;;;;;;;24.52;57.34;94912.94;4161573;28;19925;-80
2023/08/23 01:29:58;;;;;;;;;;;;;;;24.56;57.34;94905.19;4178896;28;19932;-78
2023/08/23 01:32:20;;;;;;;;;;;;;;;24.57;57.25;94898.00;4175601;28;19924;-80
2023/08/23 01:34:25;;;;;;;;;;;;;;;24.57;56.90;94903.34;4175070;28;19937;-76
2023/08/23 01:36:30;;;;;;;;;;;;;;;24.59;57.00;94893.22;4160516;28;19928;-78
2023/08/23 01:38:32;;;;;;;;;;;;;;;24.61;56.77;94896.44;4180724;28;19971;-77
2023/08/23 01:40:33;;;;;;;;;;;;;;;24.61;56.67;94893.75;4156587;28;19922;-80
2023/08/23 01:42:35;;;;;;;;;;;;;;;24.46;57.78;94899.66;4165558;28;19924;-79
2023/08/23 01:44:40;;;;;;;;;;;;;;;24.32;58.78;94899.94;4162164;28;19921;-78
2023/08/23 01:46:42;;;;;;;;;;;;;;;24.04;59.31;94894.59;4139553;28;20003;-79
2023/08/23 01:48:44;;;;;;;;;;;;;;;23.77;60.04;94888.97;4175357;28;19925;-77
2023/08/23 01:50:47;;;;;;;;;;;;;;;23.56;60.64;94891.19;4181884;28;19921;-79
2023/08/23 01:52:48;;;;;;;;;;;;;;;23.46;61.13;94885.63;4176001;28;19924;-80
2023/08/23 01:54:50;;;;;;;;;;;;;;;23.56;61.28;94888.53;4172410;28;19940;-79
2023/08/23 01:56:51;;;;;;;;;;;;;;;23.69;60.61;94888.25;4176128;28;19976;-84
2023/08/23 01:58:53;;;;;;;;;;;;;;;23.76;60.47;94893.50;4172414;28;20240;-79
2023/08/23 02:00:55;;;;;;;;;;;;;;;23.76;60.64;94895.38;4158705;28;20332;-78
2023/08/23 02:02:57;;;;;;;;;;;;;;;23.68;60.50;94897.34;4176649;28;19960;-78
2023/08/23 02:04:59;;;;;;;;;;;;;;;23.64;60.32;94898.03;4158707;28;19935;-80
2023/08/23 02:07:00;;;;;;;;;;;;;;;23.56;59.98;94896.56;4173376;28;20398;-79
2023/08/23 02:09:02;;;;;;;;;;;;;;;23.51;59.98;94899.94;4172477;28;19944;-79
2023/08/23 02:11:04;;;;;;;;;;;;;;;23.45;59.96;94895.53;4175287;28;19947;-79
2023/08/23 02:13:06;;;;;;;;;;;;;;;23.40;60.26;94900.75;4176337;28;20376;-80
2023/08/23 02:15:08;;;;;;;;;;;;;;;23.38;60.10;94896.69;4172880;28;19925;-79
2023/08/23 02:17:10;;;;;;;;;;;;;;;23.39;60.06;94893.78;4159131;28;19928;-80
2023/08/23 02:19:12;;;;;;;;;;;;;;;23.44;59.87;94887.72;4175171;28;19924;-77
2023/08/23 02:21:14;;;;;;;;;;;;;;;23.51;59.82;94891.06;4172492;28;20304;-78
2023/08/23 02:23:15;;;;;;;;;;;;;;;23.54;59.56;94898.66;4175881;28;20079;-79
2023/08/23 02:25:17;;;;;;;;;;;;;;;23.56;60.13;94888.53;4168153;28;20042;-80
2023/08/23 02:27:19;;;;;;;;;;;;;;;23.62;59.69;94890.25;4175792;28;19927;-78
2023/08/23 02:29:20;;;;;;;;;;;;;;;23.68;59.65;94889.31;4165101;28;20075;-78
2023/08/23 02:31:22;;;;;;;;;;;;;;;23.74;59.52;94892.09;4177769;28;19924;-80
2023/08/23 02:33:23;;;;;;;;;;;;;;;23.78;59.59;94896.75;4180614;28;19921;-78
2023/08/23 02:35:25;;;;;;;;;;;;;;;23.81;59.53;94890.97;4173460;28;20309;-80
2023/08/23 02:37:27;;;;;;;;;;;;;;;23.81;59.20;94896.31;4150078;28;19922;-77
2023/08/23 02:39:29;;;;;;;;;;;;;;;23.82;59.79;94895.25;4175959;28;19986;-80
2023/08/23 02:41:30;;;;;;;;;;;;;;;23.76;59.51;94892.69;4159858;28;20415;-79
2023/08/23 02:43:32;;;;;;;;;;;;;;;23.71;59.38;94888.84;4172514;28;20491;-77
2023/08/23 02:45:37;;;;;;;;;;;;;;;23.70;59.11;94887.22;4153488;28;20265;-79
2023/08/23 02:47:38;;;;;;;;;;;;;;;23.73;59.15;94893.16;4186026;28;19932;-80
2023/08/23 02:49:40;;;;;;;;;;;;;;;23.51;59.01;94885.72;4179239;28;19979;-79
2023/08/23 02:51:42;;;;;;;;;;;;;;;23.25;59.94;94887.88;4166566;28;20367;-80
2023/08/23 02:53:43;;;;;;;;;;;;;;;23.17;60.01;94893.56;4167820;28;19925;-79
2023/08/23 02:55:45;;;;;;;;;;;;;;;23.13;60.04;94891.59;4186681;28;19921;-82
2023/08/23 02:57:47;;;;;;;;;;;;;;;22.99;60.40;94885.63;4175859;28;20020;-77
2023/08/23 02:59:49;;;;;;;;;;;;;;;22.95;60.32;94892.47;4184025;28;19959;-78
2023/08/23 03:01:50;;;;;;;;;;;;;;;22.91;60.94;94894.81;4185052;28;20537;-79
2023/08/23 03:03:52;;;;;;;;;;;;;;;22.87;60.59;94883.75;4167273;28;19983;-78
2023/08/23 03:05:57;;;;;;;;;;;;;;;22.85;61.01;94885.84;4158427;28;19925;-79
2023/08/23 03:08:00;;;;;;;;;;;;;;;22.81;61.37;94887.34;4178750;28;20355;-79
2023/08/23 03:10:02;;;;;;;;;;;;;;;22.82;61.54;94883.66;4172403;28;19921;-78
2023/08/23 03:12:03;;;;;;;;;;;;;;;22.89;61.20;94881.69;4177973;28;20007;-78
2023/08/23 03:14:05;;;;;;;;;;;;;;;22.91;60.94;94889.47;4180834;28;19921;-77
2023/08/23 03:16:06;;;;;;;;;;;;;;;22.82;61.20;94886.31;4181797;28;19920;-77
2023/08/23 03:18:08;;;;;;;;;;;;;;;22.74;61.44;94892.00;4183807;28;19920;-78
2023/08/23 03:20:10;;;;;;;;;;;;;;;22.80;61.83;94890.25;4188580;28;19931;-78
2023/08/23 03:22:12;;;;;;;;;;;;;;;22.87;62.05;94891.78;4169138;28;19971;-76
2023/08/23 03:24:13;;;;;;;;;;;;;;;22.95;61.50;94889.81;4166794;28;20385;-77
2023/08/23 03:26:15;;;;;;;;;;;;;;;23.02;61.61;94894.03;4184065;28;19943;-79
2023/08/23 03:28:17;;;;;;;;;;;;;;;23.03;60.94;94892.16;4179492;28;20004;-78
2023/08/23 03:30:19;;;;;;;;;;;;;;;22.85;61.21;94896.53;4171130;28;20229;-78
2023/08/23 03:32:20;;;;;;;;;;;;;;;22.83;61.48;94892.47;4151829;28;19929;-79
2023/08/23 03:34:22;;;;;;;;;;;;;;;22.89;61.49;94883.53;4180299;28;19955;-78
2023/08/23 03:36:24;;;;;;;;;;;;;;;22.89;61.17;94887.03;4173214;28;20020;-79
2023/08/23 03:38:26;;;;;;;;;;;;;;;22.87;61.25;94890.97;4146716;28;20008;-79
2023/08/23 03:40:27;;;;;;;;;;;;;;;22.87;61.53;94894.44;4172873;28;19920;-80
2023/08/23 03:42:29;;;;;;;;;;;;;;;22.87;61.63;94896.31;4173667;28;20004;-76
2023/08/23 03:44:30;;;;;;;;;;;;;;;22.86;61.64;94898.16;4165910;28;20003;-78
2023/08/23 03:46:32;;;;;;;;;;;;;;;22.84;61.69;94892.25;4155397;28;19984;-78
2023/08/23 03:48:34;;;;;;;;;;;;;;;22.86;61.86;94892.81;4174103;28;20008;-78
2023/08/23 03:50:35;;;;;;;;;;;;;;;22.90;61.63;94893.97;4174172;28;19928;-75
2023/08/23 03:52:37;;;;;;;;;;;;;;;22.95;61.68;94895.97;4173583;28;19960;-78
2023/08/23 03:54:39;;;;;;;;;;;;;;;22.98;61.03;94890.16;4148734;28;20381;-79
2023/08/23 03:56:40;;;;;;;;;;;;;;;23.01;61.23;94889.72;4156407;28;20589;-77
2023/08/23 03:58:42;;;;;;;;;;;;;;;23.05;60.58;94898.09;4174575;28;20386;-78
2023/08/23 04:00:48;;;;;;;;;;;;;;;23.08;60.43;94895.78;4158967;28;19925;-78
2023/08/23 04:02:50;;;;;;;;;;;;;;;23.13;60.15;94903.09;4159824;28;19927;-78
2023/08/23 04:04:52;;;;;;;;;;;;;;;23.10;59.98;94892.84;4158985;28;19928;-78
2023/08/23 04:06:54;;;;;;;;;;;;;;;22.99;59.94;94890.97;4167991;28;19925;-79
2023/08/23 04:08:55;;;;;;;;;;;;;;;22.87;60.23;94889.09;4170943;28;20341;-79
2023/08/23 04:10:57;;;;;;;;;;;;;;;22.71;60.53;94895.13;4164632;28;19959;-79
2023/08/23 04:12:59;;;;;;;;;;;;;;;22.61;61.49;94897.56;4159171;28;19925;-79
2023/08/23 04:15:00;;;;;;;;;;;;;;;22.58;61.54;94895.31;4176611;28;20115;-79
2023/08/23 04:17:03;;;;;;;;;;;;;;;22.47;61.80;94897.72;4179397;28;19924;-80
2023/08/23 04:19:05;;;;;;;;;;;;;;;22.10;62.48;94897.00;4180475;28;20280;-79
2023/08/23 04:21:06;;;;;;;;;;;;;;;21.86;63.70;94893.44;4172073;28;19927;-79
2023/08/23 04:23:08;;;;;;;;;;;;;;;22.12;63.37;94896.78;4189196;28;19926;-79
2023/08/23 04:25:10;;;;;;;;;;;;;;;22.36;62.82;94903.06;4169085;28;19921;-78
2023/08/23 04:27:12;;;;;;;;;;;;;;;22.58;62.02;94898.81;4178847;28;19920;-79
2023/08/23 04:29:14;;;;;;;;;;;;;;;22.78;61.53;94895.84;4158823;28;20016;-80
2023/08/23 04:31:16;;;;;;;;;;;;;;;22.94;60.95;94896.19;4166119;28;19966;-80
2023/08/23 04:33:22;;;;;;;;;;;;;;;23.06;60.63;94886.38;4183402;28;19925;-79
2023/08/23 04:35:23;;;;;;;;;;;;;;;23.13;60.01;94892.41;4170212;28;19928;-79
2023/08/23 04:37:25;;;;;;;;;;;;;;;23.21;59.32;94893.91;4165492;28;20075;-80
2023/08/23 04:39:27;;;;;;;;;;;;;;;23.28;59.04;94886.59;4174310;28;19928;-79
2023/08/23 04:41:30;;;;;;;;;;;;;;;23.35;59.22;94891.81;4166460;28;20412;-80
2023/08/23 04:43:32;;;;;;;;;;;;;;;23.39;58.73;94891.09;4175016;28;20232;-77
2023/08/23 04:45:38;;;;;;;;;;;;;;;23.40;58.40;94891.91;4149034;28;19925;-80
2023/08/23 04:47:40;;;;;;;;;;;;;;;23.44;58.51;94898.41;4167804;28;19936;-78
2023/08/23 04:49:42;;;;;;;;;;;;;;;23.22;58.87;94898.22;4167423;28;20445;-80
2023/08/23 04:51:44;;;;;;;;;;;;;;;23.08;59.33;94901.13;4186950;28;20292;-78
2023/08/23 04:53:46;;;;;;;;;;;;;;;22.96;59.83;94902.13;4173676;28;20032;-79
2023/08/23 04:55:48;;;;;;;;;;;;;;;22.86;60.10;94903.50;4171386;28;20408;-79
2023/08/23 04:57:49;;;;;;;;;;;;;;;22.82;60.23;94899.69;4156187;28;19975;-79
2023/08/23 04:59:52;;;;;;;;;;;;;;;22.81;60.30;94899.91;4145647;28;20284;-81
2023/08/23 05:01:54;;;;;;;;;;;;;;;22.82;60.45;94906.84;4178348;28;19928;-80
2023/08/23 05:03:55;;;;;;;;;;;;;;;22.91;59.79;94905.50;4186579;28;19928;-80
2023/08/23 05:05:57;;;;;;;;;;;;;;;23.07;59.38;94904.03;4183267;28;21153;-81
2023/08/23 05:07:59;;;;;;;;;;;;;;;23.22;59.20;94904.38;4184749;28;20346;-78
2023/08/23 05:10:01;;;;;;;;;;;;;;;23.39;58.72;94909.00;4182885;28;19928;-78
2023/08/23 05:12:03;;;;;;;;;;;;;;;23.54;58.27;94901.31;4162324;28;19920;-78
2023/08/23 05:14:05;;;;;;;;;;;;;;;23.69;58.06;94901.63;4176428;28;20024;-79
2023/08/23 05:16:07;;;;;;;;;;;;;;;23.82;57.27;94903.28;4180419;28;19920;-80
2023/08/23 05:18:09;;;;;;;;;;;;;;;23.88;56.88;94898.84;4179079;28;20288;-78
2023/08/23 05:20:11;;;;;;;;;;;;;;;23.97;56.63;94896.59;4180292;28;19924;-79
2023/08/23 05:22:13;;;;;;;;;;;;;;;24.07;56.58;94902.97;4168236;28;19921;-81
2023/08/23 05:24:14;;;;;;;;;;;;;;;24.16;56.35;94899.91;4153024;28;19936;-79
2023/08/23 05:26:16;;;;;;;;;;;;;;;24.25;55.87;94901.16;4189494;28;19940;-79
2023/08/23 05:28:18;;;;;;;;;;;;;;;24.34;55.48;94905.06;4162154;28;20019;-81
2023/08/23 05:30:20;;;;;;;;;;;;;;;24.43;55.29;94911.63;4182506;28;19926;-78
2023/08/23 05:32:21;;;;;;;;;;;;;;;24.53;55.22;94911.06;4166974;28;20348;-79
2023/08/23 05:34:23;;;;;;;;;;;;;;;24.59;54.81;94909.28;4165985;28;19932;-80
2023/08/23 05:36:25;;;;;;;;;;;;;;;24.59;54.68;94901.25;4183687;28;19927;-78
2023/08/23 05:38:28;;;;;;;;;;;;;;;24.61;54.96;94910.66;4176405;28;19921;-79
2023/08/23 05:40:30;;;;;;;;;;;;;;;24.69;54.71;94904.09;4186222;28;19921;-80
2023/08/23 05:42:31;;;;;;;;;;;;;;;24.78;54.56;94907.19;4188135;28;19934;-81
2023/08/23 05:44:33;;;;;;;;;;;;;;;24.82;54.40;94900.28;4171187;28;19927;-79
2023/08/23 05:46:34;;;;;;;;;;;;;;;24.88;54.16;94897.44;4190307;28;19939;-80
2023/08/23 05:48:38;;;;;;;;;;;;;;;25.00;54.26;94902.72;4180266;23;19960;-90
2023/08/23 05:50:40;;;;;;;;;;;;;;;25.08;53.87;94899.66;4154400;28;20003;-88
2023/08/23 05:52:47;;;;;;;;;;;;;;;25.14;53.89;94904.03;4169301;28;19921;-90
2023/08/23 05:54:49;;;;;;;;;;;;;;;25.18;53.88;94901.66;4157399;28;19961;-91
2023/08/23 05:56:51;;;;;;;;;;;;;;;25.18;53.76;94903.53;4162294;28;20374;-91
2023/08/23 05:58:53;;;;;;;;;;;;;;;25.23;53.62;94898.25;4196462;28;19928;-90
2023/08/23 06:01:12;;;;;;;;;;;;;;;25.30;53.52;94905.09;4176424;28;20720;-89
2023/08/23 06:03:28;;;;;;;;;;;;;;;25.43;53.54;94900.44;4173876;28;20004;-89
2023/08/23 06:05:30;;;;;;;;;;;;;;;25.54;52.96;94894.16;4163344;28;19933;-90
2023/08/23 06:07:32;;;;;;;;;;;;;;;25.58;52.72;94897.97;4190167;28;19921;-87
2023/08/23 06:09:34;;;;;;;;;;;;;;;25.58;52.63;94897.16;4180586;28;19971;-89
2023/08/23 06:11:38;;;;;;;;;;;;;;;25.55;52.78;94909.16;4189092;28;19931;-90
2023/08/23 06:13:54;;;;;;;;;;;;;;;25.41;52.97;94907.91;4175020;28;19910;-89
2023/08/23 06:16:10;;;;;;;;;;;;;;;25.27;53.52;94900.19;4206525;28;19921;-89
2023/08/23 06:18:12;;;;;;;;;;;;;;;25.36;53.30;94899.78;4170265;28;19930;-92
2023/08/23 06:20:16;;;;;;;;;;;;;;;25.51;53.08;94897.31;4182429;28;19917;-90
2023/08/23 06:22:19;;;;;;;;;;;;;;;25.54;52.85;94891.47;4185949;28;19948;-89
2023/08/23 06:24:20;;;;;;;;;;;;;;;25.61;52.77;94902.00;4183973;28;20359;-87
2023/08/23 06:26:22;;;;;;;;;;;;;;;25.76;52.20;94894.16;4178564;28;19950;-91
2023/08/23 06:28:24;;;;;;;;;;;;;;;25.87;52.10;94898.59;4180659;28;19974;-89
2023/08/23 06:30:27;;;;;;;;;;;;;;;25.85;52.25;94899.91;4182628;28;19920;-87
2023/08/23 06:32:46;;;;;;;;;;;;;;;25.68;52.71;94895.41;4167270;28;20011;-88
2023/08/23 06:34:48;;;;;;;;;;;;;;;25.49;52.66;94891.38;4178174;28;19920;-89
2023/08/23 06:36:50;;;;;;;;;;;;;;;25.49;52.82;94891.38;4183387;28;19921;-89
2023/08/23 06:38:53;;;;;;;;;;;;;;;25.42;53.03;94898.81;4165539;28;19909;-89
2023/08/23 06:41:09;;;;;;;;;;;;;;;25.59;52.59;94896.88;4177721;28;19932;-90
2023/08/23 06:43:16;;;;;;;;;;;;;;;25.81;52.47;94891.53;4212225;28;19920;-90
2023/08/23 06:45:18;;;;;;;;;;;;;;;26.06;51.91;94888.38;4172673;28;19935;-91
2023/08/23 06:47:24;;;;;;;;;;;;;;;26.20;51.11;94887.97;4174195;28;19948;-91
2023/08/23 06:49:27;;;;;;;;;;;;;;;26.26;51.29;94892.34;4174907;28;19942;-90
2023/08/23 06:51:42;;;;;;;;;;;;;;;26.35;50.93;94888.97;4180593;28;19947;-90
2023/08/23 06:53:50;;;;;;;;;;;;;;;26.14;51.12;94887.13;4174008;28;19912;-90
2023/08/23 06:56:01;;;;;;;;;;;;;;;26.22;51.36;94888.53;4195050;28;19916;-91
2023/08/23 06:58:17;;;;;;;;;;;;;;;26.36;51.25;94900.50;4188412;28;19909;-90
2023/08/23 07:00:21;;;;;;;;;;;;;;;26.20;51.37;94896.88;4196341;28;19968;-92
2023/08/23 07:02:37;;;;;;;;;;;;;;;26.05;51.31;94900.19;4202263;28;19968;-90
2023/08/23 07:04:58;;;;;;;;;;;;;;;26.00;51.50;94896.63;4200226;28;19931;-90
2023/08/23 07:07:13;;;;;;;;;;;;;;;26.05;51.58;94897.50;4212838;23;20015;-78
2023/08/23 07:09:15;;;;;;;;;;;;;;;26.22;51.16;94904.66;4168877;28;19964;-78
2023/08/23 07:11:17;;;;;;;;;;;;;;;26.47;51.25;94896.84;4173588;28;20007;-78
2023/08/23 07:13:19;;;;;;;;;;;;;;;26.72;50.48;94892.81;4161169;28;20028;-76
2023/08/23 07:15:22;;;;;;;;;;;;;;;26.91;50.09;94893.22;4174566;28;20031;-77
2023/08/23 07:17:24;;;;;;;;;;;;;;;27.00;49.63;94896.28;4154920;28;20024;-76
2023/08/23 07:19:26;;;;;;;;;;;;;;;26.95;49.78;94894.34;4187499;28;19928;-77
2023/08/23 07:21:28;;;;;;;;;;;;;;;26.85;49.45;94897.78;4173589;28;19924;-75
2023/08/23 07:23:30;;;;;;;;;;;;;;;26.85;49.41;94897.78;4172980;28;20098;-77
2023/08/23 07:25:31;;;;;;;;;;;;;;;27.02;49.78;94891.44;4165513;28;19972;-77
2023/08/23 07:27:36;;;;;;;;;;;;;;;27.01;50.13;94893.31;4166962;28;20671;-81
2023/08/23 07:29:39;;;;;;;;;;;;;;;27.09;49.67;94890.16;4159742;28;19924;-76
2023/08/23 07:31:40;;;;;;;;;;;;;;;27.01;49.76;94885.25;4194588;28;19925;-84
2023/08/23 07:33:45;;;;;;;;;;;;;;;27.13;49.41;94880.50;4174061;28;20438;-71
2023/08/23 07:35:53;;;;;;;;;;;;;;;27.31;49.32;94884.69;4170311;28;21403;-74
2023/08/23 07:37:54;;;;;;;;;;;;;;;27.41;48.85;94888.53;4163353;28;20051;-81
2023/08/23 07:39:59;;;;;;;;;;;;;;;27.09;48.87;94883.97;4184324;28;19935;-74
2023/08/23 07:42:00;;;;;;;;;;;;;;;27.10;49.46;94877.50;4185888;28;19920;-77
2023/08/23 07:44:02;;;;;;;;;;;;;;;27.15;49.00;94880.25;4181336;28;19929;-77
2023/08/23 07:46:07;;;;;;;;;;;;;;;27.20;49.41;94882.16;4191849;28;19938;-77
2023/08/23 07:48:08;;;;;;;;;;;;;;;27.44;48.98;94875.34;4176492;28;19921;-84
2023/08/23 07:50:10;;;;;;;;;;;;;;;27.55;47.66;94870.81;4177063;28;19921;-78
2023/08/23 07:52:12;;;;;;;;;;;;;;;27.75;47.44;94872.81;4176471;28;19924;-80
2023/08/23 07:54:14;;;;;;;;;;;;;;;27.90;47.08;94875.59;4189598;28;19942;-78
2023/08/23 07:56:17;;;;;;;;;;;;;;;28.04;46.64;94877.81;4193915;28;20224;-76
2023/08/23 07:58:19;;;;;;;;;;;;;;;28.23;46.78;94872.75;4190827;28;20023;-78
2023/08/23 08:00:20;;;;;;;;;;;;;;;28.41;46.63;94874.13;4179224;28;19924;-79
2023/08/23 08:02:22;;;;;;;;;;;;;;;28.48;46.25;94874.66;4187794;28;20003;-77
2023/08/23 08:04:25;;;;;;;;;;;;;;;28.63;45.87;94876.59;4193888;28;19928;-78
2023/08/23 08:06:26;;;;;;;;;;;;;;;28.74;45.51;94880.94;4173683;28;20391;-83
2023/08/23 08:08:30;;;;;;;;;;;;;;;28.77;45.39;94880.38;4181248;28;19921;-81
2023/08/23 08:10:36;;;;;;;;;;;;;;;28.85;44.66;94879.06;4196170;28;19924;-80
2023/08/23 08:12:47;;;;;;;;;;;;;;;28.91;44.35;94881.47;4188279;28;19921;-80
2023/08/23 08:14:49;;;;;;;;;;;;;;;28.82;43.88;94875.00;4180937;28;19979;-88
2023/08/23 08:16:52;;;;;;;;;;;;;;;28.67;44.45;94872.28;4168162;28;19921;-85
2023/08/23 08:18:54;;;;;;;;;;;;;;;28.78;44.53;94868.50;4194851;28;19924;-79
2023/08/23 08:20:56;;;;;;;;;;;;;;;28.82;44.51;94864.19;4194031;28;20870;-79
2023/08/23 08:22:57;;;;;;;;;;;;;;;28.91;44.75;94868.00;4190923;28;19920;-79
2023/08/23 08:25:02;;;;;;;;;;;;;;;29.12;44.35;94870.69;4182178;28;19999;-80
2023/08/23 08:27:04;;;;;;;;;;;;;;;29.15;43.81;94862.88;4184853;28;19971;-83
2023/08/23 08:29:06;;;;;;;;;;;;;;;29.33;43.71;94868.78;4176723;28;20364;-79
2023/08/23 08:31:07;;;;;;;;;;;;;;;29.47;42.96;94863.63;4174964;28;19921;-84
2023/08/23 08:33:09;;;;;;;;;;;;;;;29.43;43.17;94859.84;4183732;28;20415;-77
2023/08/23 08:35:11;;;;;;;;;;;;;;;29.33;43.26;94866.09;4187301;28;20437;-78
2023/08/23 08:37:39;;;;;;;;;;;;;;;29.30;43.26;94858.53;4195817;28;19924;-83
2023/08/23 08:39:57;;;;;;;;;;;;;;;29.45;43.10;94857.69;4179739;28;19924;-81
2023/08/23 08:42:16;;;;;;;;;;;;;;;29.39;43.10;94862.28;4138100;28;19921;-80
2023/08/23 08:44:18;;;;;;;;;;;;;;;29.18;43.41;94858.81;4185491;28;19971;-81
2023/08/23 08:46:19;;;;;;;;;;;;;;;29.05;43.97;94849.38;4191252;28;20431;-84
2023/08/23 08:48:21;;;;;;;;;;;;;;;28.86;44.03;94859.09;4191017;28;19920;-82
2023/08/23 08:50:22;;;;;;;;;;;;;;;28.77;43.88;94851.53;4197355;28;20371;-80
2023/08/23 08:52:25;;;;;;;;;;;;;;;28.87;44.29;94858.03;4195493;28;19966;-83
2023/08/23 08:54:28;;;;;;;;;;;;;;;29.09;43.05;94847.78;4193399;28;20003;-82
2023/08/23 08:56:30;;;;;;;;;;;;;;;29.35;43.39;94845.03;4195549;28;19999;-75
2023/08/23 08:58:32;;;;;;;;;;;;;;;29.47;42.73;94848.25;4168100;28;19939;-82
2023/08/23 09:00:33;;;;;;;;;;;;;;;29.61;42.71;94843.06;4190731;28;20330;-85
2023/08/23 09:02:35;;;;;;;;;;;;;;;29.89;42.22;94838.13;4180102;28;19982;-81
2023/08/23 09:04:38;;;;;;;;;;;;;;;30.05;41.62;94834.28;4197153;28;19920;-79
2023/08/23 09:06:40;;;;;;;;;;;;;;;30.05;41.25;94831.56;4197447;28;20264;-78
2023/08/23 09:08:42;;;;;;;;;;;;;;;30.19;41.01;94832.56;4206051;28;19920;-83
2023/08/23 09:10:44;;;;;;;;;;;;;;;30.46;40.79;94833.22;4204898;28;20015;-78
2023/08/23 09:12:45;;;;;;;;;;;;;;;30.54;39.39;94828.03;4199856;28;19931;-84
2023/08/23 09:14:47;;;;;;;;;;;;;;;30.74;38.23;94827.09;4195081;28;19932;-79
2023/08/23 09:16:49;;;;;;;;;;;;;;;30.82;36.95;94812.94;4194877;28;19967;-77
2023/08/23 09:18:52;;;;;;;;;;;;;;;30.90;36.50;94819.66;4197759;28;19991;-83
2023/08/23 09:21:12;;;;;;;;;;;;;;;31.11;35.21;94819.47;4169365;28;20618;-79
2023/08/23 09:23:15;;;;;;;;;;;;;;;31.25;35.37;94811.47;4189896;28;19924;-76
2023/08/23 09:25:16;;;;;;;;;;;;;;;31.45;34.42;94802.34;4180842;28;19967;-84
2023/08/23 09:27:20;;;;;;;;;;;;;;;31.50;34.53;94803.13;4173759;28;19921;-83
2023/08/23 09:29:38;;;;;;;;;;;;;;;31.53;34.07;94805.22;4166875;28;19925;-79
2023/08/23 09:31:40;;;;;;;;;;;;;;;31.70;33.67;94801.25;4202059;28;20039;-84
2023/08/23 09:33:42;;;;;;;;;;;;;;;31.80;33.65;94801.94;4198434;28;19928;-82
2023/08/23 09:35:48;;;;;;;;;;;;;;;31.80;33.27;94801.94;4193618;28;19930;-83
2023/08/23 09:37:52;;;;;;;;;;;;;;;31.76;33.38;94797.41;4198978;28;19924;-81
2023/08/23 09:39:54;;;;;;;;;;;;;;;31.29;33.40;94788.97;4173122;28;19924;-86
2023/08/23 09:42:03;;;;;;;;;;;;;;;31.26;33.78;94789.56;4162515;28;20020;-86
2023/08/23 09:44:04;;;;;;;;;;;;;;;31.45;32.92;94780.69;4198273;28;19925;-85
2023/08/23 09:46:08;;;;;;;;;;;;;;;31.50;33.01;94777.94;4164671;28;19979;-84
2023/08/23 09:48:10;;;;;;;;;;;;;;;31.45;32.60;94776.13;4179128;28;19920;-84
2023/08/23 09:50:12;;;;;;;;;;;;;;;31.64;32.57;94773.41;4210733;28;19920;-81
2023/08/23 09:52:14;;;;;;;;;;;;;;;31.78;32.76;94768.91;4184524;28;19930;-84
2023/08/23 09:54:36;;;;;;;;;;;;;;;31.68;32.03;94760.91;4185550;28;21888;-86
2023/08/23 09:56:53;;;;;;;;;;;;;;;31.60;32.21;94767.81;4198195;28;20420;-86
2023/08/23 09:58:56;;;;;;;;;;;;;;;31.69;32.15;94765.25;4188365;28;19992;-86
2023/08/23 10:00:58;;;;;;;;;;;;;;;31.97;32.42;94760.00;4186683;28;19928;-85
2023/08/23 10:03:00;;;;;;;;;;;;;;;32.16;32.25;94760.84;4197053;28;19962;-86
2023/08/23 10:05:04;;;;;;;;;;;;;;;32.10;32.21;94761.22;4188980;28;19989;-78
2023/08/23 10:07:07;;;;;;;;;;;;;;;31.97;32.24;94751.88;4196161;28;19977;-89
2023/08/23 10:09:09;;;;;;;;;;;;;;;32.00;32.36;94765.66;4178947;28;20394;-88
2023/08/23 10:11:10;;;;;;;;;;;;;;;32.11;32.92;94760.91;4164376;28;19928;-85
2023/08/23 10:13:12;;;;;;;;;;;;;;;32.31;32.90;94765.22;4178361;28;20035;-85
2023/08/23 10:15:20;;;;;;;;;;;;;;;32.37;32.17;94763.22;4178782;28;19921;-86
2023/08/23 10:17:22;;;;;;;;;;;;;;;32.31;32.06;94761.69;4173923;28;19943;-85
2023/08/23 10:19:27;;;;;;;;;;;;;;;32.29;31.93;94767.44;4178199;28;19978;-85
2023/08/23 10:21:28;;;;;;;;;;;;;;;32.46;31.73;94766.91;4188556;28;19920;-87
2023/08/23 10:23:32;;;;;;;;;;;;;;;32.51;31.90;94768.72;4193055;28;19920;-88
2023/08/23 10:25:35;;;;;;;;;;;;;;;32.61;32.21;94761.25;4167123;28;19929;-86
2023/08/23 10:27:36;;;;;;;;;;;;;;;32.31;32.54;94758.97;4181263;28;19921;-86
2023/08/23 10:29:38;;;;;;;;;;;;;;;32.08;33.40;94745.25;4190358;28;19920;-88
2023/08/23 10:31:50;;;;;;;;;;;;;;;32.16;33.39;94747.28;4164614;28;19940;-86
2023/08/23 10:33:56;;;;;;;;;;;;;;;32.32;33.66;94742.44;4166970;28;19946;-88
2023/08/23 10:35:59;;;;;;;;;;;;;;;32.63;32.56;94750.09;4188078;28;19921;-86
2023/08/23 10:38:02;;;;;;;;;;;;;;;32.66;31.96;94748.72;4180511;28;19920;-87
2023/08/23 10:40:11;;;;;;;;;;;;;;;32.92;31.53;94749.06;4164755;28;20008;-87
2023/08/23 10:42:13;;;;;;;;;;;;;;;32.93;31.52;94747.94;4192759;28;20477;-88
2023/08/23 10:44:15;;;;;;;;;;;;;;;32.68;31.74;94746.50;4186759;28;19928;-87